sensor_id;sensor_type;location;lat;lon;timestamp;temperature;humidity
63313;DHT22;49442;45.640;13.812;2022-08-03T00:01:38;25.00;91.30
63313;DHT22;49442;45.640;13.812;2022-08-03T00:04:05;25.00;91.30
63313;DHT22;49442;45.640;13.812;2022-08-03T00:06:31;25.00;91.40
63313;DHT22;49442;45.640;13.812;2022-08-03T00:08:57;24.90;91.50
63313;DHT22;49442;45.640;13.812;2022-08-03T00:11:23;24.90;91.60
63313;DHT22;49442;45.640;13.812;2022-08-03T00:13:49;24.80;91.70
63313;DHT22;49442;45.640;13.812;2022-08-03T00:16:17;24.80;92.00
63313;DHT22;49442;45.640;13.812;2022-08-03T00:18:43;24.70;92.00
63313;DHT22;49442;45.640;13.812;2022-08-03T00:21:09;24.70;92.20
63313;DHT22;49442;45.640;13.812;2022-08-03T00:23:35;24.70;92.30
63313;DHT22;49442;45.640;13.812;2022-08-03T00:26:01;24.60;92.40
63313;DHT22;49442;45.640;13.812;2022-08-03T00:28:27;24.60;92.60
63313;DHT22;49442;45.640;13.812;2022-08-03T00:30:52;24.50;92.80
63313;DHT22;49442;45.640;13.812;2022-08-03T00:33:20;24.50;92.90
63313;DHT22;49442;45.640;13.812;2022-08-03T00:35:46;24.50;93.00
63313;DHT22;49442;45.640;13.812;2022-08-03T00:38:12;24.50;93.10
63313;DHT22;49442;45.640;13.812;2022-08-03T00:40:37;24.40;93.20
63313;DHT22;49442;45.640;13.812;2022-08-03T00:43:05;24.40;93.30
63313;DHT22;49442;45.640;13.812;2022-08-03T00:45:39;24.40;93.30
63313;DHT22;49442;45.640;13.812;2022-08-03T00:48:07;24.40;93.50
63313;DHT22;49442;45.640;13.812;2022-08-03T00:50:35;24.40;93.50
63313;DHT22;49442;45.640;13.812;2022-08-03T00:53:03;24.40;93.60
63313;DHT22;49442;45.640;13.812;2022-08-03T00:55:29;24.40;93.80
63313;DHT22;49442;45.640;13.812;2022-08-03T00:57:55;24.40;93.80
63313;DHT22;49442;45.640;13.812;2022-08-03T01:00:25;24.40;93.90
63313;DHT22;49442;45.640;13.812;2022-08-03T01:02:52;24.40;94.00
63313;DHT22;49442;45.640;13.812;2022-08-03T01:05:21;24.40;94.00
63313;DHT22;49442;45.640;13.812;2022-08-03T01:08:27;24.30;94.10
63313;DHT22;49442;45.640;13.812;2022-08-03T01:11:18;24.30;94.00
63313;DHT22;49442;45.640;13.812;2022-08-03T01:14:12;24.30;94.10
63313;DHT22;49442;45.640;13.812;2022-08-03T01:17:01;24.30;94.20
63313;DHT22;49442;45.640;13.812;2022-08-03T01:19:39;24.30;94.30
63313;DHT22;49442;45.640;13.812;2022-08-03T01:25:27;24.20;94.50
63313;DHT22;49442;45.640;13.812;2022-08-03T01:30:40;24.20;94.80
63313;DHT22;49442;45.640;13.812;2022-08-03T01:33:31;24.20;95.00
63313;DHT22;49442;45.640;13.812;2022-08-03T01:36:21;24.20;95.00
63313;DHT22;49442;45.640;13.812;2022-08-03T01:38:53;24.10;95.10
63313;DHT22;49442;45.640;13.812;2022-08-03T01:41:24;24.10;95.20
63313;DHT22;49442;45.640;13.812;2022-08-03T01:43:50;24.10;95.30
63313;DHT22;49442;45.640;13.812;2022-08-03T01:46:18;24.00;95.40
63313;DHT22;49442;45.640;13.812;2022-08-03T01:48:47;24.00;95.60
63313;DHT22;49442;45.640;13.812;2022-08-03T01:51:15;24.00;95.60
63313;DHT22;49442;45.640;13.812;2022-08-03T01:53:48;24.00;95.70
63313;DHT22;49442;45.640;13.812;2022-08-03T01:56:16;24.00;96.00
63313;DHT22;49442;45.640;13.812;2022-08-03T01:58:45;23.90;96.00
63313;DHT22;49442;45.640;13.812;2022-08-03T02:01:14;23.90;96.00
63313;DHT22;49442;45.640;13.812;2022-08-03T02:03:42;23.90;96.10
63313;DHT22;49442;45.640;13.812;2022-08-03T02:06:10;23.90;96.10
63313;DHT22;49442;45.640;13.812;2022-08-03T02:08:42;23.90;96.30
63313;DHT22;49442;45.640;13.812;2022-08-03T02:11:09;23.90;96.20
63313;DHT22;49442;45.640;13.812;2022-08-03T02:13:36;23.90;96.20
63313;DHT22;49442;45.640;13.812;2022-08-03T02:16:03;23.90;96.20
63313;DHT22;49442;45.640;13.812;2022-08-03T02:18:30;23.90;96.30
63313;DHT22;49442;45.640;13.812;2022-08-03T02:21:01;23.90;96.40
63313;DHT22;49442;45.640;13.812;2022-08-03T02:23:29;23.90;96.30
63313;DHT22;49442;45.640;13.812;2022-08-03T02:26:01;23.90;96.40
63313;DHT22;49442;45.640;13.812;2022-08-03T02:28:34;23.90;96.30
63313;DHT22;49442;45.640;13.812;2022-08-03T02:31:03;23.90;96.40
63313;DHT22;49442;45.640;13.812;2022-08-03T02:33:42;23.90;96.40
63313;DHT22;49442;45.640;13.812;2022-08-03T02:36:10;24.00;96.50
63313;DHT22;49442;45.640;13.812;2022-08-03T02:38:40;24.00;96.30
63313;DHT22;49442;45.640;13.812;2022-08-03T02:41:14;24.00;96.30
63313;DHT22;49442;45.640;13.812;2022-08-03T02:43:42;24.00;96.30
63313;DHT22;49442;45.640;13.812;2022-08-03T02:46:13;24.00;96.40
63313;DHT22;49442;45.640;13.812;2022-08-03T02:48:40;24.00;96.50
63313;DHT22;49442;45.640;13.812;2022-08-03T02:51:06;24.00;96.50
63313;DHT22;49442;45.640;13.812;2022-08-03T02:53:32;24.00;96.50
63313;DHT22;49442;45.640;13.812;2022-08-03T02:56:00;24.00;96.60
63313;DHT22;49442;45.640;13.812;2022-08-03T02:58:27;23.90;96.50
63313;DHT22;49442;45.640;13.812;2022-08-03T03:00:54;23.90;96.60
63313;DHT22;49442;45.640;13.812;2022-08-03T03:03:21;23.90;96.60
63313;DHT22;49442;45.640;13.812;2022-08-03T03:05:49;23.90;96.60
63313;DHT22;49442;45.640;13.812;2022-08-03T03:08:19;23.90;96.60
63313;DHT22;49442;45.640;13.812;2022-08-03T03:10:46;23.90;96.70
63313;DHT22;49442;45.640;13.812;2022-08-03T03:13:14;24.00;96.80
63313;DHT22;49442;45.640;13.812;2022-08-03T03:15:40;24.00;96.70
63313;DHT22;49442;45.640;13.812;2022-08-03T03:18:08;24.00;96.70
63313;DHT22;49442;45.640;13.812;2022-08-03T03:20:36;23.90;96.90
63313;DHT22;49442;45.640;13.812;2022-08-03T03:23:03;23.90;97.00
63313;DHT22;49442;45.640;13.812;2022-08-03T03:25:33;23.90;96.60
63313;DHT22;49442;45.640;13.812;2022-08-03T03:27:59;23.90;96.50
63313;DHT22;49442;45.640;13.812;2022-08-03T03:30:26;23.90;96.50
63313;DHT22;49442;45.640;13.812;2022-08-03T03:32:53;23.90;96.50
63313;DHT22;49442;45.640;13.812;2022-08-03T03:35:19;23.90;96.60
63313;DHT22;49442;45.640;13.812;2022-08-03T03:37:45;23.90;96.60
63313;DHT22;49442;45.640;13.812;2022-08-03T03:40:11;23.90;96.60
63313;DHT22;49442;45.640;13.812;2022-08-03T03:42:37;23.90;96.60
63313;DHT22;49442;45.640;13.812;2022-08-03T03:45:05;23.90;96.60
63313;DHT22;49442;45.640;13.812;2022-08-03T03:47:32;23.90;96.60
63313;DHT22;49442;45.640;13.812;2022-08-03T03:49:58;23.90;96.60
63313;DHT22;49442;45.640;13.812;2022-08-03T03:52:24;23.90;96.60
63313;DHT22;49442;45.640;13.812;2022-08-03T03:54:50;23.90;96.40
63313;DHT22;49442;45.640;13.812;2022-08-03T03:57:15;23.90;96.30
63313;DHT22;49442;45.640;13.812;2022-08-03T03:59:41;23.90;95.90
63313;DHT22;49442;45.640;13.812;2022-08-03T04:02:08;23.90;95.80
63313;DHT22;49442;45.640;13.812;2022-08-03T04:04:35;24.00;95.50
63313;DHT22;49442;45.640;13.812;2022-08-03T04:07:20;24.10;95.50
63313;DHT22;49442;45.640;13.812;2022-08-03T04:10:14;24.10;95.40
63313;DHT22;49442;45.640;13.812;2022-08-03T04:13:01;24.20;95.30
63313;DHT22;49442;45.640;13.812;2022-08-03T04:15:28;24.20;95.30
63313;DHT22;49442;45.640;13.812;2022-08-03T04:17:57;24.20;95.30
63313;DHT22;49442;45.640;13.812;2022-08-03T04:20:28;24.30;95.20
63313;DHT22;49442;45.640;13.812;2022-08-03T04:22:55;24.30;95.10
63313;DHT22;49442;45.640;13.812;2022-08-03T04:25:26;24.30;95.20
63313;DHT22;49442;45.640;13.812;2022-08-03T04:27:54;24.30;95.10
63313;DHT22;49442;45.640;13.812;2022-08-03T04:30:24;24.30;95.10
63313;DHT22;49442;45.640;13.812;2022-08-03T04:32:50;24.40;95.20
63313;DHT22;49442;45.640;13.812;2022-08-03T04:35:18;24.40;95.30
63313;DHT22;49442;45.640;13.812;2022-08-03T04:37:46;24.40;95.40
63313;DHT22;49442;45.640;13.812;2022-08-03T04:40:15;24.40;95.50
63313;DHT22;49442;45.640;13.812;2022-08-03T04:42:48;24.50;95.40
63313;DHT22;49442;45.640;13.812;2022-08-03T04:45:15;24.50;95.40
63313;DHT22;49442;45.640;13.812;2022-08-03T04:47:42;24.50;95.60
63313;DHT22;49442;45.640;13.812;2022-08-03T04:50:09;24.40;95.70
63313;DHT22;49442;45.640;13.812;2022-08-03T04:52:36;24.50;95.60
63313;DHT22;49442;45.640;13.812;2022-08-03T04:55:01;24.40;95.60
63313;DHT22;49442;45.640;13.812;2022-08-03T04:57:27;24.40;95.60
63313;DHT22;49442;45.640;13.812;2022-08-03T04:59:53;24.40;95.80
63313;DHT22;49442;45.640;13.812;2022-08-03T05:02:21;24.40;95.70
63313;DHT22;49442;45.640;13.812;2022-08-03T05:04:47;24.40;95.80
63313;DHT22;49442;45.640;13.812;2022-08-03T05:07:14;24.40;95.80
63313;DHT22;49442;45.640;13.812;2022-08-03T05:09:39;24.40;95.90
63313;DHT22;49442;45.640;13.812;2022-08-03T05:12:06;24.40;95.90
63313;DHT22;49442;45.640;13.812;2022-08-03T05:14:32;24.40;95.90
63313;DHT22;49442;45.640;13.812;2022-08-03T05:16:58;24.30;95.90
63313;DHT22;49442;45.640;13.812;2022-08-03T05:19:24;24.30;96.00
63313;DHT22;49442;45.640;13.812;2022-08-03T05:21:52;24.40;95.90
63313;DHT22;49442;45.640;13.812;2022-08-03T05:24:18;24.40;96.00
63313;DHT22;49442;45.640;13.812;2022-08-03T05:26:44;24.30;95.90
63313;DHT22;49442;45.640;13.812;2022-08-03T05:29:10;24.40;96.00
63313;DHT22;49442;45.640;13.812;2022-08-03T05:31:35;24.40;96.10
63313;DHT22;49442;45.640;13.812;2022-08-03T05:34:01;24.40;96.00
63313;DHT22;49442;45.640;13.812;2022-08-03T05:36:27;24.40;95.80
63313;DHT22;49442;45.640;13.812;2022-08-03T05:38:52;24.40;95.90
63313;DHT22;49442;45.640;13.812;2022-08-03T05:41:18;24.40;95.90
63313;DHT22;49442;45.640;13.812;2022-08-03T05:43:44;24.40;95.70
63313;DHT22;49442;45.640;13.812;2022-08-03T05:46:09;24.40;95.60
63313;DHT22;49442;45.640;13.812;2022-08-03T05:48:35;24.50;95.40
63313;DHT22;49442;45.640;13.812;2022-08-03T05:51:01;24.60;95.40
63313;DHT22;49442;45.640;13.812;2022-08-03T05:53:27;24.60;95.60
63313;DHT22;49442;45.640;13.812;2022-08-03T05:55:54;24.60;95.40
63313;DHT22;49442;45.640;13.812;2022-08-03T05:58:20;24.70;95.10
63313;DHT22;49442;45.640;13.812;2022-08-03T06:00:46;24.70;95.10
63313;DHT22;49442;45.640;13.812;2022-08-03T06:03:11;24.80;95.10
63313;DHT22;49442;45.640;13.812;2022-08-03T06:05:37;24.80;95.10
63313;DHT22;49442;45.640;13.812;2022-08-03T06:08:03;24.90;95.10
63313;DHT22;49442;45.640;13.812;2022-08-03T06:10:29;24.90;95.00
63313;DHT22;49442;45.640;13.812;2022-08-03T06:12:54;25.00;95.00
63313;DHT22;49442;45.640;13.812;2022-08-03T06:15:20;25.00;94.80
63313;DHT22;49442;45.640;13.812;2022-08-03T06:17:50;25.00;94.60
63313;DHT22;49442;45.640;13.812;2022-08-03T06:20:17;25.10;94.40
63313;DHT22;49442;45.640;13.812;2022-08-03T06:22:44;25.20;94.20
63313;DHT22;49442;45.640;13.812;2022-08-03T06:25:10;25.30;94.10
63313;DHT22;49442;45.640;13.812;2022-08-03T06:27:36;25.30;93.90
63313;DHT22;49442;45.640;13.812;2022-08-03T06:30:05;25.40;93.90
63313;DHT22;49442;45.640;13.812;2022-08-03T06:32:31;25.40;93.80
63313;DHT22;49442;45.640;13.812;2022-08-03T06:34:58;25.40;93.80
63313;DHT22;49442;45.640;13.812;2022-08-03T06:37:24;25.50;93.60
63313;DHT22;49442;45.640;13.812;2022-08-03T06:39:51;25.60;93.60
63313;DHT22;49442;45.640;13.812;2022-08-03T06:42:17;25.60;93.70
63313;DHT22;49442;45.640;13.812;2022-08-03T06:44:43;25.70;93.60
63313;DHT22;49442;45.640;13.812;2022-08-03T06:47:09;25.80;93.00
63313;DHT22;49442;45.640;13.812;2022-08-03T06:49:34;25.80;93.00
63313;DHT22;49442;45.640;13.812;2022-08-03T06:52:00;25.90;92.70
63313;DHT22;49442;45.640;13.812;2022-08-03T06:54:26;25.90;92.70
63313;DHT22;49442;45.640;13.812;2022-08-03T06:56:51;26.10;92.30
63313;DHT22;49442;45.640;13.812;2022-08-03T06:59:18;26.20;92.20
63313;DHT22;49442;45.640;13.812;2022-08-03T07:01:44;26.30;92.10
63313;DHT22;49442;45.640;13.812;2022-08-03T07:04:09;26.30;91.80
63313;DHT22;49442;45.640;13.812;2022-08-03T07:06:37;26.30;91.80
63313;DHT22;49442;45.640;13.812;2022-08-03T07:09:03;26.50;91.60
63313;DHT22;49442;45.640;13.812;2022-08-03T07:11:29;26.60;91.50
63313;DHT22;49442;45.640;13.812;2022-08-03T07:13:55;26.60;91.30
63313;DHT22;49442;45.640;13.812;2022-08-03T07:16:21;26.70;91.30
63313;DHT22;49442;45.640;13.812;2022-08-03T07:18:47;26.80;91.00
63313;DHT22;49442;45.640;13.812;2022-08-03T07:21:12;26.90;90.80
63313;DHT22;49442;45.640;13.812;2022-08-03T07:23:40;27.00;90.20
63313;DHT22;49442;45.640;13.812;2022-08-03T07:26:06;27.10;90.20
63313;DHT22;49442;45.640;13.812;2022-08-03T07:28:32;27.10;90.10
63313;DHT22;49442;45.640;13.812;2022-08-03T07:30:57;27.20;89.70
63313;DHT22;49442;45.640;13.812;2022-08-03T07:33:24;27.20;89.70
63313;DHT22;49442;45.640;13.812;2022-08-03T07:35:49;27.30;88.60
63313;DHT22;49442;45.640;13.812;2022-08-03T07:38:15;27.40;88.00
63313;DHT22;49442;45.640;13.812;2022-08-03T07:40:42;27.50;88.70
63313;DHT22;49442;45.640;13.812;2022-08-03T07:43:07;27.50;88.80
63313;DHT22;49442;45.640;13.812;2022-08-03T07:45:33;27.60;89.60
63313;DHT22;49442;45.640;13.812;2022-08-03T07:47:59;27.70;87.10
63313;DHT22;49442;45.640;13.812;2022-08-03T07:50:25;27.80;87.60
63313;DHT22;49442;45.640;13.812;2022-08-03T07:52:51;27.90;87.50
63313;DHT22;49442;45.640;13.812;2022-08-03T07:55:20;27.90;87.00
63313;DHT22;49442;45.640;13.812;2022-08-03T07:58:07;28.00;86.10
63313;DHT22;49442;45.640;13.812;2022-08-03T08:00:34;28.10;86.80
63313;DHT22;49442;45.640;13.812;2022-08-03T08:03:01;28.10;86.20
63313;DHT22;49442;45.640;13.812;2022-08-03T08:05:27;28.10;87.00
63313;DHT22;49442;45.640;13.812;2022-08-03T08:07:53;28.20;85.80
63313;DHT22;49442;45.640;13.812;2022-08-03T08:10:20;28.20;85.90
63313;DHT22;49442;45.640;13.812;2022-08-03T08:12:46;28.40;85.80
63313;DHT22;49442;45.640;13.812;2022-08-03T08:15:11;28.40;83.80
63313;DHT22;49442;45.640;13.812;2022-08-03T08:17:52;28.50;84.30
63313;DHT22;49442;45.640;13.812;2022-08-03T08:20:23;28.60;83.90
63313;DHT22;49442;45.640;13.812;2022-08-03T08:22:49;28.70;82.10
63313;DHT22;49442;45.640;13.812;2022-08-03T08:25:15;28.80;82.60
63313;DHT22;49442;45.640;13.812;2022-08-03T08:27:45;28.80;82.70
63313;DHT22;49442;45.640;13.812;2022-08-03T08:32:55;28.80;82.30
63313;DHT22;49442;45.640;13.812;2022-08-03T08:35:22;28.80;82.40
63313;DHT22;49442;45.640;13.812;2022-08-03T08:37:48;29.00;83.10
63313;DHT22;49442;45.640;13.812;2022-08-03T08:40:14;29.10;82.80
63313;DHT22;49442;45.640;13.812;2022-08-03T08:42:43;29.10;83.30
63313;DHT22;49442;45.640;13.812;2022-08-03T08:45:09;29.20;82.10
63313;DHT22;49442;45.640;13.812;2022-08-03T08:47:38;29.30;83.10
63313;DHT22;49442;45.640;13.812;2022-08-03T08:50:05;29.30;82.30
63313;DHT22;49442;45.640;13.812;2022-08-03T08:52:33;29.30;82.30
63313;DHT22;49442;45.640;13.812;2022-08-03T08:55:01;29.40;81.40
63313;DHT22;49442;45.640;13.812;2022-08-03T08:57:36;29.50;82.00
63313;DHT22;49442;45.640;13.812;2022-08-03T09:00:08;29.60;80.60
63313;DHT22;49442;45.640;13.812;2022-08-03T09:02:35;29.60;81.10
63313;DHT22;49442;45.640;13.812;2022-08-03T09:05:02;29.70;81.30
63313;DHT22;49442;45.640;13.812;2022-08-03T09:07:28;29.70;81.80
63313;DHT22;49442;45.640;13.812;2022-08-03T09:09:54;29.80;80.20
63313;DHT22;49442;45.640;13.812;2022-08-03T09:12:19;29.90;80.30
63313;DHT22;49442;45.640;13.812;2022-08-03T09:14:45;29.90;80.20
63313;DHT22;49442;45.640;13.812;2022-08-03T09:17:11;29.90;80.00
63313;DHT22;49442;45.640;13.812;2022-08-03T09:19:38;29.90;79.90
63313;DHT22;49442;45.640;13.812;2022-08-03T09:22:13;29.90;79.80
63313;DHT22;49442;45.640;13.812;2022-08-03T09:24:59;29.90;79.50
63313;DHT22;49442;45.640;13.812;2022-08-03T09:27:25;30.00;80.20
63313;DHT22;49442;45.640;13.812;2022-08-03T09:29:52;30.00;79.50
63313;DHT22;49442;45.640;13.812;2022-08-03T09:32:23;30.10;79.80
63313;DHT22;49442;45.640;13.812;2022-08-03T09:34:50;30.10;79.00
63313;DHT22;49442;45.640;13.812;2022-08-03T09:37:18;30.20;78.50
63313;DHT22;49442;45.640;13.812;2022-08-03T09:39:44;30.20;78.70
63313;DHT22;49442;45.640;13.812;2022-08-03T09:42:16;30.30;78.70
63313;DHT22;49442;45.640;13.812;2022-08-03T09:44:47;30.40;78.20
63313;DHT22;49442;45.640;13.812;2022-08-03T09:47:35;30.40;77.10
63313;DHT22;49442;45.640;13.812;2022-08-03T09:50:07;30.30;77.30
63313;DHT22;49442;45.640;13.812;2022-08-03T09:52:38;30.40;77.20
63313;DHT22;49442;45.640;13.812;2022-08-03T09:55:12;30.60;76.00
63313;DHT22;49442;45.640;13.812;2022-08-03T09:57:38;30.60;75.20
63313;DHT22;49442;45.640;13.812;2022-08-03T10:00:15;30.70;77.80
63313;DHT22;49442;45.640;13.812;2022-08-03T10:02:42;30.70;76.90
63313;DHT22;49442;45.640;13.812;2022-08-03T10:05:10;30.60;76.40
63313;DHT22;49442;45.640;13.812;2022-08-03T10:07:44;30.70;75.20
63313;DHT22;49442;45.640;13.812;2022-08-03T10:10:11;30.70;75.20
63313;DHT22;49442;45.640;13.812;2022-08-03T10:12:37;30.70;74.70
63313;DHT22;49442;45.640;13.812;2022-08-03T10:15:07;30.70;74.80
63313;DHT22;49442;45.640;13.812;2022-08-03T10:17:34;30.70;75.00
63313;DHT22;49442;45.640;13.812;2022-08-03T10:20:00;30.80;73.70
63313;DHT22;49442;45.640;13.812;2022-08-03T10:22:27;30.80;73.20
63313;DHT22;49442;45.640;13.812;2022-08-03T10:24:58;30.80;72.10
63313;DHT22;49442;45.640;13.812;2022-08-03T10:27:24;30.80;70.80
63313;DHT22;49442;45.640;13.812;2022-08-03T10:30:00;30.80;71.00
63313;DHT22;49442;45.640;13.812;2022-08-03T10:32:30;30.70;69.70
63313;DHT22;49442;45.640;13.812;2022-08-03T10:35:05;30.70;71.00
63313;DHT22;49442;45.640;13.812;2022-08-03T10:37:33;30.80;70.90
63313;DHT22;49442;45.640;13.812;2022-08-03T10:40:01;30.90;70.00
63313;DHT22;49442;45.640;13.812;2022-08-03T10:42:28;31.00;69.40
63313;DHT22;49442;45.640;13.812;2022-08-03T10:45:06;31.10;68.30
63313;DHT22;49442;45.640;13.812;2022-08-03T10:47:34;31.10;69.10
63313;DHT22;49442;45.640;13.812;2022-08-03T10:50:01;31.10;70.60
63313;DHT22;49442;45.640;13.812;2022-08-03T10:52:27;31.30;70.50
63313;DHT22;49442;45.640;13.812;2022-08-03T10:54:53;31.30;68.20
63313;DHT22;49442;45.640;13.812;2022-08-03T10:57:51;31.30;69.90
63313;DHT22;49442;45.640;13.812;2022-08-03T11:00:27;31.50;69.10
63313;DHT22;49442;45.640;13.812;2022-08-03T11:05:29;31.50;67.80
63313;DHT22;49442;45.640;13.812;2022-08-03T11:08:21;31.40;66.30
63313;DHT22;49442;45.640;13.812;2022-08-03T11:10:49;31.40;67.40
63313;DHT22;49442;45.640;13.812;2022-08-03T11:13:17;31.30;67.30
63313;DHT22;49442;45.640;13.812;2022-08-03T11:15:45;31.30;68.00
63313;DHT22;49442;45.640;13.812;2022-08-03T11:18:12;31.30;67.50
63313;DHT22;49442;45.640;13.812;2022-08-03T11:20:54;31.20;69.90
63313;DHT22;49442;45.640;13.812;2022-08-03T11:26:14;31.00;76.90
63313;DHT22;49442;45.640;13.812;2022-08-03T11:28:42;31.00;79.20
63313;DHT22;49442;45.640;13.812;2022-08-03T11:34:04;31.10;81.40
63313;DHT22;49442;45.640;13.812;2022-08-03T11:36:30;31.20;78.30
63313;DHT22;49442;45.640;13.812;2022-08-03T11:39:16;31.20;79.80
63313;DHT22;49442;45.640;13.812;2022-08-03T11:41:41;31.00;78.80
63313;DHT22;49442;45.640;13.812;2022-08-03T11:44:07;30.80;77.50
63313;DHT22;49442;45.640;13.812;2022-08-03T11:46:36;30.70;76.50
63313;DHT22;49442;45.640;13.812;2022-08-03T11:49:05;30.60;75.80
63313;DHT22;49442;45.640;13.812;2022-08-03T11:51:34;30.40;74.50
63313;DHT22;49442;45.640;13.812;2022-08-03T11:54:02;30.30;75.70
63313;DHT22;49442;45.640;13.812;2022-08-03T11:56:42;30.30;72.70
63313;DHT22;49442;45.640;13.812;2022-08-03T11:59:08;30.30;75.60
63313;DHT22;49442;45.640;13.812;2022-08-03T12:01:34;30.30;76.80
63313;DHT22;49442;45.640;13.812;2022-08-03T12:04:03;30.40;74.80
63313;DHT22;49442;45.640;13.812;2022-08-03T12:06:29;30.40;78.50
63313;DHT22;49442;45.640;13.812;2022-08-03T12:08:55;30.50;80.50
63313;DHT22;49442;45.640;13.812;2022-08-03T12:11:21;30.50;82.80
63313;DHT22;49442;45.640;13.812;2022-08-03T12:13:49;30.60;83.30
63313;DHT22;49442;45.640;13.812;2022-08-03T12:16:21;30.70;81.30
63313;DHT22;49442;45.640;13.812;2022-08-03T12:19:04;30.70;80.70
63313;DHT22;49442;45.640;13.812;2022-08-03T12:21:31;30.80;80.90
63313;DHT22;49442;45.640;13.812;2022-08-03T12:24:04;30.90;77.40
63313;DHT22;49442;45.640;13.812;2022-08-03T12:26:42;30.90;77.00
63313;DHT22;49442;45.640;13.812;2022-08-03T12:29:16;31.00;74.90
63313;DHT22;49442;45.640;13.812;2022-08-03T12:31:42;31.00;75.40
63313;DHT22;49442;45.640;13.812;2022-08-03T12:34:08;30.90;73.10
63313;DHT22;49442;45.640;13.812;2022-08-03T12:36:34;30.80;75.40
63313;DHT22;49442;45.640;13.812;2022-08-03T12:39:05;30.80;77.30
63313;DHT22;49442;45.640;13.812;2022-08-03T12:41:36;30.80;76.50
63313;DHT22;49442;45.640;13.812;2022-08-03T12:44:06;30.90;76.40
63313;DHT22;49442;45.640;13.812;2022-08-03T12:46:34;30.90;77.60
63313;DHT22;49442;45.640;13.812;2022-08-03T12:49:16;30.80;78.60
63313;DHT22;49442;45.640;13.812;2022-08-03T12:54:24;30.90;78.40
63313;DHT22;49442;45.640;13.812;2022-08-03T12:57:02;31.00;77.00
63313;DHT22;49442;45.640;13.812;2022-08-03T12:59:30;31.00;77.00
63313;DHT22;49442;45.640;13.812;2022-08-03T13:01:56;31.00;76.00
63313;DHT22;49442;45.640;13.812;2022-08-03T13:04:30;31.10;76.90
63313;DHT22;49442;45.640;13.812;2022-08-03T13:07:05;31.00;77.90
63313;DHT22;49442;45.640;13.812;2022-08-03T13:10:25;31.00;76.30
63313;DHT22;49442;45.640;13.812;2022-08-03T13:12:32;31.00;79.20
63313;DHT22;49442;45.640;13.812;2022-08-03T13:14:59;31.10;77.20
63313;DHT22;49442;45.640;13.812;2022-08-03T13:17:25;31.10;76.60
63313;DHT22;49442;45.640;13.812;2022-08-03T13:19:52;31.10;75.40
63313;DHT22;49442;45.640;13.812;2022-08-03T13:22:25;31.20;74.80
63313;DHT22;49442;45.640;13.812;2022-08-03T13:24:54;31.10;74.80
63313;DHT22;49442;45.640;13.812;2022-08-03T13:27:21;31.10;75.80
63313;DHT22;49442;45.640;13.812;2022-08-03T13:29:46;31.10;75.70
63313;DHT22;49442;45.640;13.812;2022-08-03T13:32:12;31.20;74.00
63313;DHT22;49442;45.640;13.812;2022-08-03T13:34:38;31.20;75.00
63313;DHT22;49442;45.640;13.812;2022-08-03T13:37:04;31.10;74.80
63313;DHT22;49442;45.640;13.812;2022-08-03T13:39:32;31.20;74.80
63313;DHT22;49442;45.640;13.812;2022-08-03T13:41:58;31.20;72.60
63313;DHT22;49442;45.640;13.812;2022-08-03T13:44:24;31.10;73.80
63313;DHT22;49442;45.640;13.812;2022-08-03T13:46:49;31.20;74.10
63313;DHT22;49442;45.640;13.812;2022-08-03T13:49:15;31.20;72.50
63313;DHT22;49442;45.640;13.812;2022-08-03T13:51:41;31.20;72.60
63313;DHT22;49442;45.640;13.812;2022-08-03T13:54:07;31.20;71.70
63313;DHT22;49442;45.640;13.812;2022-08-03T13:56:33;31.20;72.60
63313;DHT22;49442;45.640;13.812;2022-08-03T13:58:58;31.10;72.60
63313;DHT22;49442;45.640;13.812;2022-08-03T14:01:25;31.00;73.40
63313;DHT22;49442;45.640;13.812;2022-08-03T14:03:51;31.00;74.80
63313;DHT22;49442;45.640;13.812;2022-08-03T14:06:23;31.00;77.60
63313;DHT22;49442;45.640;13.812;2022-08-03T14:08:49;31.00;77.30
63313;DHT22;49442;45.640;13.812;2022-08-03T14:11:16;30.90;77.00
63313;DHT22;49442;45.640;13.812;2022-08-03T14:13:42;30.90;77.30
63313;DHT22;49442;45.640;13.812;2022-08-03T14:16:08;30.80;80.00
63313;DHT22;49442;45.640;13.812;2022-08-03T14:18:34;30.90;76.90
63313;DHT22;49442;45.640;13.812;2022-08-03T14:21:04;30.80;79.30
63313;DHT22;49442;45.640;13.812;2022-08-03T14:23:30;30.80;79.00
63313;DHT22;49442;45.640;13.812;2022-08-03T14:25:56;30.70;80.20
63313;DHT22;49442;45.640;13.812;2022-08-03T14:28:22;30.50;81.30
63313;DHT22;49442;45.640;13.812;2022-08-03T14:30:49;30.50;80.30
63313;DHT22;49442;45.640;13.812;2022-08-03T14:33:15;30.50;80.60
63313;DHT22;49442;45.640;13.812;2022-08-03T14:35:41;30.40;80.50
63313;DHT22;49442;45.640;13.812;2022-08-03T14:38:07;30.50;81.50
63313;DHT22;49442;45.640;13.812;2022-08-03T14:40:32;30.60;80.80
63313;DHT22;49442;45.640;13.812;2022-08-03T14:42:58;30.70;82.00
63313;DHT22;49442;45.640;13.812;2022-08-03T14:45:24;30.70;82.10
63313;DHT22;49442;45.640;13.812;2022-08-03T14:47:49;30.70;81.50
63313;DHT22;49442;45.640;13.812;2022-08-03T14:50:16;30.80;81.50
63313;DHT22;49442;45.640;13.812;2022-08-03T14:52:41;30.70;80.30
63313;DHT22;49442;45.640;13.812;2022-08-03T14:55:07;30.70;80.50
63313;DHT22;49442;45.640;13.812;2022-08-03T14:57:33;30.60;80.40
63313;DHT22;49442;45.640;13.812;2022-08-03T14:59:59;30.50;81.10
63313;DHT22;49442;45.640;13.812;2022-08-03T15:02:25;30.50;79.10
63313;DHT22;49442;45.640;13.812;2022-08-03T15:04:51;30.50;79.00
63313;DHT22;49442;45.640;13.812;2022-08-03T15:07:16;30.40;79.00
63313;DHT22;49442;45.640;13.812;2022-08-03T15:09:42;30.40;77.00
63313;DHT22;49442;45.640;13.812;2022-08-03T15:12:08;30.40;75.90
63313;DHT22;49442;45.640;13.812;2022-08-03T15:14:34;30.40;75.30
63313;DHT22;49442;45.640;13.812;2022-08-03T15:17:00;30.40;76.60
63313;DHT22;49442;45.640;13.812;2022-08-03T15:19:25;30.30;75.40
63313;DHT22;49442;45.640;13.812;2022-08-03T15:21:51;30.30;75.90
63313;DHT22;49442;45.640;13.812;2022-08-03T15:24:17;30.30;76.50
63313;DHT22;49442;45.640;13.812;2022-08-03T15:26:43;30.30;73.80
63313;DHT22;49442;45.640;13.812;2022-08-03T15:29:09;30.20;72.70
63313;DHT22;49442;45.640;13.812;2022-08-03T15:31:35;30.10;76.90
63313;DHT22;49442;45.640;13.812;2022-08-03T15:34:03;30.10;79.10
63313;DHT22;49442;45.640;13.812;2022-08-03T15:36:29;30.20;76.60
63313;DHT22;49442;45.640;13.812;2022-08-03T15:38:56;30.20;78.20
63313;DHT22;49442;45.640;13.812;2022-08-03T15:41:21;30.30;77.00
63313;DHT22;49442;45.640;13.812;2022-08-03T15:43:47;30.20;79.50